sensor_id;sensor_type;location;lat;lon;timestamp;P1;durP1;ratioP1;P2;durP2;ratioP2
19519;SDS011;9904;52.246;20.898;2023-05-07T00:00:18;17.10;;;5.70;;
19519;SDS011;9904;52.246;20.898;2023-05-07T00:02:47;14.03;;;5.97;;
19519;SDS011;9904;52.246;20.898;2023-05-07T00:05:14;10.07;;;5.90;;
19519;SDS011;9904;52.246;20.898;2023-05-07T00:07:41;8.83;;;4.87;;
19519;SDS011;9904;52.246;20.898;2023-05-07T00:10:09;8.93;;;5.50;;
19519;SDS011;9904;52.246;20.898;2023-05-07T00:12:40;11.40;;;5.47;;
19519;SDS011;9904;52.246;20.898;2023-05-07T00:15:07;11.13;;;6.13;;
19519;SDS011;9904;52.246;20.898;2023-05-07T00:17:34;14.07;;;5.73;;
19519;SDS011;9904;52.246;20.898;2023-05-07T00:20:01;11.73;;;6.20;;
19519;SDS011;9904;52.246;20.898;2023-05-07T00:22:29;9.57;;;5.03;;
19519;SDS011;9904;52.246;20.898;2023-05-07T00:24:56;11.40;;;6.23;;
19519;SDS011;9904;52.246;20.898;2023-05-07T00:27:23;11.20;;;5.77;;
19519;SDS011;9904;52.246;20.898;2023-05-07T00:29:50;12.50;;;5.60;;
19519;SDS011;9904;52.246;20.898;2023-05-07T00:32:17;13.17;;;6.00;;
19519;SDS011;9904;52.246;20.898;2023-05-07T00:34:43;12.10;;;6.07;;
19519;SDS011;9904;52.246;20.898;2023-05-07T00:37:10;11.27;;;6.40;;
19519;SDS011;9904;52.246;20.898;2023-05-07T00:39:38;8.93;;;5.10;;
19519;SDS011;9904;52.246;20.898;2023-05-07T00:42:04;10.10;;;5.37;;
19519;SDS011;9904;52.246;20.898;2023-05-07T00:44:31;13.13;;;6.10;;
19519;SDS011;9904;52.246;20.898;2023-05-07T00:46:57;8.87;;;5.47;;
19519;SDS011;9904;52.246;20.898;2023-05-07T00:49:25;9.13;;;5.37;;
19519;SDS011;9904;52.246;20.898;2023-05-07T00:52:02;10.47;;;5.23;;
19519;SDS011;9904;52.246;20.898;2023-05-07T00:54:28;8.40;;;5.30;;
19519;SDS011;9904;52.246;20.898;2023-05-07T00:56:55;11.80;;;5.47;;
19519;SDS011;9904;52.246;20.898;2023-05-07T00:59:22;9.07;;;5.27;;
19519;SDS011;9904;52.246;20.898;2023-05-07T01:01:48;9.00;;;4.87;;
19519;SDS011;9904;52.246;20.898;2023-05-07T01:04:15;9.20;;;5.50;;
19519;SDS011;9904;52.246;20.898;2023-05-07T01:06:43;7.67;;;4.90;;
19519;SDS011;9904;52.246;20.898;2023-05-07T01:09:11;10.40;;;5.87;;
19519;SDS011;9904;52.246;20.898;2023-05-07T01:11:38;12.37;;;5.37;;
19519;SDS011;9904;52.246;20.898;2023-05-07T01:14:05;12.80;;;5.77;;
19519;SDS011;9904;52.246;20.898;2023-05-07T01:16:32;7.53;;;4.30;;
19519;SDS011;9904;52.246;20.898;2023-05-07T01:18:59;11.27;;;5.30;;
19519;SDS011;9904;52.246;20.898;2023-05-07T01:21:26;11.50;;;4.87;;
19519;SDS011;9904;52.246;20.898;2023-05-07T01:23:53;10.00;;;4.70;;
19519;SDS011;9904;52.246;20.898;2023-05-07T01:26:20;10.17;;;4.77;;
19519;SDS011;9904;52.246;20.898;2023-05-07T01:28:48;12.30;;;5.50;;
19519;SDS011;9904;52.246;20.898;2023-05-07T01:31:14;8.63;;;4.90;;
19519;SDS011;9904;52.246;20.898;2023-05-07T01:33:43;8.30;;;5.00;;
19519;SDS011;9904;52.246;20.898;2023-05-07T01:36:11;8.63;;;4.83;;
19519;SDS011;9904;52.246;20.898;2023-05-07T01:38:38;9.90;;;5.20;;
19519;SDS011;9904;52.246;20.898;2023-05-07T01:41:05;9.57;;;4.73;;
19519;SDS011;9904;52.246;20.898;2023-05-07T01:43:32;11.37;;;4.67;;
19519;SDS011;9904;52.246;20.898;2023-05-07T01:45:59;11.47;;;5.10;;
19519;SDS011;9904;52.246;20.898;2023-05-07T01:48:26;10.10;;;5.17;;
19519;SDS011;9904;52.246;20.898;2023-05-07T01:50:53;11.30;;;5.43;;
19519;SDS011;9904;52.246;20.898;2023-05-07T01:53:19;9.17;;;5.30;;
19519;SDS011;9904;52.246;20.898;2023-05-07T01:55:46;9.97;;;5.13;;
19519;SDS011;9904;52.246;20.898;2023-05-07T01:58:13;14.13;;;4.90;;
19519;SDS011;9904;52.246;20.898;2023-05-07T02:00:39;10.03;;;5.20;;
19519;SDS011;9904;52.246;20.898;2023-05-07T02:03:06;10.57;;;5.03;;
19519;SDS011;9904;52.246;20.898;2023-05-07T02:05:33;10.90;;;4.87;;
19519;SDS011;9904;52.246;20.898;2023-05-07T02:07:59;8.50;;;5.17;;
19519;SDS011;9904;52.246;20.898;2023-05-07T02:10:26;7.77;;;4.50;;
19519;SDS011;9904;52.246;20.898;2023-05-07T02:12:53;12.70;;;5.20;;
19519;SDS011;9904;52.246;20.898;2023-05-07T02:15:19;10.70;;;5.47;;
19519;SDS011;9904;52.246;20.898;2023-05-07T02:17:59;13.13;;;4.93;;
19519;SDS011;9904;52.246;20.898;2023-05-07T02:20:27;9.93;;;5.27;;
19519;SDS011;9904;52.246;20.898;2023-05-07T02:22:54;8.70;;;5.20;;
19519;SDS011;9904;52.246;20.898;2023-05-07T02:25:20;9.37;;;4.83;;
19519;SDS011;9904;52.246;20.898;2023-05-07T02:27:47;10.67;;;5.00;;
19519;SDS011;9904;52.246;20.898;2023-05-07T02:30:13;13.37;;;4.43;;
19519;SDS011;9904;52.246;20.898;2023-05-07T02:32:40;8.13;;;4.37;;
19519;SDS011;9904;52.246;20.898;2023-05-07T02:35:07;12.03;;;5.27;;
19519;SDS011;9904;52.246;20.898;2023-05-07T02:37:34;11.03;;;5.00;;
19519;SDS011;9904;52.246;20.898;2023-05-07T02:40:01;9.57;;;5.37;;
19519;SDS011;9904;52.246;20.898;2023-05-07T02:42:27;11.37;;;4.93;;
19519;SDS011;9904;52.246;20.898;2023-05-07T02:44:53;9.23;;;4.60;;
19519;SDS011;9904;52.246;20.898;2023-05-07T02:47:20;11.27;;;5.17;;
19519;SDS011;9904;52.246;20.898;2023-05-07T02:49:47;9.53;;;4.70;;
19519;SDS011;9904;52.246;20.898;2023-05-07T02:52:13;10.93;;;5.30;;
19519;SDS011;9904;52.246;20.898;2023-05-07T02:54:40;13.80;;;5.20;;
19519;SDS011;9904;52.246;20.898;2023-05-07T02:57:06;10.40;;;4.90;;
19519;SDS011;9904;52.246;20.898;2023-05-07T02:59:33;10.07;;;5.00;;
19519;SDS011;9904;52.246;20.898;2023-05-07T03:01:59;9.50;;;5.07;;
19519;SDS011;9904;52.246;20.898;2023-05-07T03:04:26;8.10;;;4.77;;
19519;SDS011;9904;52.246;20.898;2023-05-07T03:06:52;9.70;;;5.33;;
19519;SDS011;9904;52.246;20.898;2023-05-07T03:09:19;7.10;;;4.47;;
19519;SDS011;9904;52.246;20.898;2023-05-07T03:11:45;8.60;;;4.27;;
19519;SDS011;9904;52.246;20.898;2023-05-07T03:14:12;9.67;;;4.70;;
19519;SDS011;9904;52.246;20.898;2023-05-07T03:16:38;7.57;;;4.30;;
19519;SDS011;9904;52.246;20.898;2023-05-07T03:19:05;11.27;;;4.20;;
19519;SDS011;9904;52.246;20.898;2023-05-07T03:21:32;8.17;;;4.83;;
19519;SDS011;9904;52.246;20.898;2023-05-07T03:24:00;9.60;;;4.67;;
19519;SDS011;9904;52.246;20.898;2023-05-07T03:26:26;9.40;;;4.73;;
19519;SDS011;9904;52.246;20.898;2023-05-07T03:28:53;7.37;;;4.30;;
19519;SDS011;9904;52.246;20.898;2023-05-07T03:31:19;9.13;;;4.53;;
19519;SDS011;9904;52.246;20.898;2023-05-07T03:33:49;7.23;;;4.50;;
19519;SDS011;9904;52.246;20.898;2023-05-07T03:36:20;8.53;;;4.20;;
19519;SDS011;9904;52.246;20.898;2023-05-07T03:38:47;7.87;;;4.77;;
19519;SDS011;9904;52.246;20.898;2023-05-07T03:41:14;9.33;;;4.33;;
19519;SDS011;9904;52.246;20.898;2023-05-07T03:43:41;9.97;;;4.13;;
19519;SDS011;9904;52.246;20.898;2023-05-07T03:46:07;9.90;;;4.37;;
19519;SDS011;9904;52.246;20.898;2023-05-07T03:48:34;8.90;;;4.53;;
19519;SDS011;9904;52.246;20.898;2023-05-07T03:51:00;8.13;;;4.70;;
19519;SDS011;9904;52.246;20.898;2023-05-07T03:53:27;8.47;;;4.40;;
19519;SDS011;9904;52.246;20.898;2023-05-07T03:55:53;7.43;;;4.47;;
19519;SDS011;9904;52.246;20.898;2023-05-07T03:58:20;9.90;;;4.43;;
19519;SDS011;9904;52.246;20.898;2023-05-07T04:00:46;7.40;;;4.13;;
19519;SDS011;9904;52.246;20.898;2023-05-07T04:03:15;10.47;;;4.77;;
19519;SDS011;9904;52.246;20.898;2023-05-07T04:05:42;9.53;;;4.30;;
19519;SDS011;9904;52.246;20.898;2023-05-07T04:08:08;8.43;;;4.73;;
19519;SDS011;9904;52.246;20.898;2023-05-07T04:10:35;10.63;;;4.07;;
19519;SDS011;9904;52.246;20.898;2023-05-07T04:13:01;7.53;;;3.90;;
19519;SDS011;9904;52.246;20.898;2023-05-07T04:15:28;7.50;;;4.00;;
19519;SDS011;9904;52.246;20.898;2023-05-07T04:17:54;7.80;;;4.17;;
19519;SDS011;9904;52.246;20.898;2023-05-07T04:20:21;8.33;;;4.50;;
19519;SDS011;9904;52.246;20.898;2023-05-07T04:22:48;9.10;;;4.50;;
19519;SDS011;9904;52.246;20.898;2023-05-07T04:25:15;10.93;;;4.53;;
19519;SDS011;9904;52.246;20.898;2023-05-07T04:27:42;8.17;;;4.60;;
19519;SDS011;9904;52.246;20.898;2023-05-07T04:30:09;8.87;;;4.43;;
19519;SDS011;9904;52.246;20.898;2023-05-07T04:32:36;8.17;;;4.50;;
19519;SDS011;9904;52.246;20.898;2023-05-07T04:35:03;8.73;;;4.53;;
19519;SDS011;9904;52.246;20.898;2023-05-07T04:37:31;8.17;;;4.23;;
19519;SDS011;9904;52.246;20.898;2023-05-07T04:39:58;7.20;;;4.13;;
19519;SDS011;9904;52.246;20.898;2023-05-07T04:42:25;6.07;;;4.00;;
19519;SDS011;9904;52.246;20.898;2023-05-07T04:44:52;7.10;;;4.50;;
19519;SDS011;9904;52.246;20.898;2023-05-07T04:47:19;8.73;;;4.17;;
19519;SDS011;9904;52.246;20.898;2023-05-07T04:49:46;6.27;;;3.93;;
19519;SDS011;9904;52.246;20.898;2023-05-07T04:52:12;11.20;;;4.17;;
19519;SDS011;9904;52.246;20.898;2023-05-07T04:54:39;7.70;;;4.17;;
19519;SDS011;9904;52.246;20.898;2023-05-07T04:57:06;10.53;;;4.53;;
19519;SDS011;9904;52.246;20.898;2023-05-07T04:59:33;7.03;;;4.17;;
19519;SDS011;9904;52.246;20.898;2023-05-07T05:01:59;9.73;;;4.03;;
19519;SDS011;9904;52.246;20.898;2023-05-07T05:04:26;7.10;;;4.10;;
19519;SDS011;9904;52.246;20.898;2023-05-07T05:06:53;6.97;;;4.07;;
19519;SDS011;9904;52.246;20.898;2023-05-07T05:09:19;7.23;;;3.70;;
19519;SDS011;9904;52.246;20.898;2023-05-07T05:11:46;7.57;;;3.90;;
19519;SDS011;9904;52.246;20.898;2023-05-07T05:14:13;7.77;;;3.90;;
19519;SDS011;9904;52.246;20.898;2023-05-07T05:16:39;8.30;;;4.00;;
19519;SDS011;9904;52.246;20.898;2023-05-07T05:19:06;7.93;;;3.63;;
19519;SDS011;9904;52.246;20.898;2023-05-07T05:21:32;8.43;;;4.20;;
19519;SDS011;9904;52.246;20.898;2023-05-07T05:23:59;6.77;;;4.03;;
19519;SDS011;9904;52.246;20.898;2023-05-07T05:26:25;7.67;;;4.00;;
19519;SDS011;9904;52.246;20.898;2023-05-07T05:28:52;9.23;;;3.70;;
19519;SDS011;9904;52.246;20.898;2023-05-07T05:31:18;6.37;;;3.50;;
19519;SDS011;9904;52.246;20.898;2023-05-07T05:33:45;5.87;;;3.40;;
19519;SDS011;9904;52.246;20.898;2023-05-07T05:36:12;5.27;;;3.40;;
19519;SDS011;9904;52.246;20.898;2023-05-07T05:38:39;6.77;;;3.57;;
19519;SDS011;9904;52.246;20.898;2023-05-07T05:41:06;6.53;;;3.43;;
19519;SDS011;9904;52.246;20.898;2023-05-07T05:43:33;7.47;;;2.97;;
19519;SDS011;9904;52.246;20.898;2023-05-07T05:45:59;9.00;;;3.47;;
19519;SDS011;9904;52.246;20.898;2023-05-07T05:48:28;6.70;;;3.13;;
19519;SDS011;9904;52.246;20.898;2023-05-07T05:50:55;7.23;;;3.20;;
19519;SDS011;9904;52.246;20.898;2023-05-07T05:53:21;6.03;;;3.20;;
19519;SDS011;9904;52.246;20.898;2023-05-07T05:55:48;4.90;;;3.10;;
19519;SDS011;9904;52.246;20.898;2023-05-07T05:58:14;5.23;;;3.37;;
19519;SDS011;9904;52.246;20.898;2023-05-07T06:00:41;7.63;;;3.07;;
19519;SDS011;9904;52.246;20.898;2023-05-07T06:03:08;4.63;;;2.80;;
19519;SDS011;9904;52.246;20.898;2023-05-07T06:05:34;6.53;;;2.67;;
19519;SDS011;9904;52.246;20.898;2023-05-07T06:08:01;7.10;;;3.00;;
19519;SDS011;9904;52.246;20.898;2023-05-07T06:10:27;5.43;;;2.43;;
19519;SDS011;9904;52.246;20.898;2023-05-07T06:12:54;5.23;;;2.70;;
19519;SDS011;9904;52.246;20.898;2023-05-07T06:15:21;5.27;;;2.90;;
19519;SDS011;9904;52.246;20.898;2023-05-07T06:17:47;4.57;;;3.03;;
19519;SDS011;9904;52.246;20.898;2023-05-07T06:20:15;6.47;;;2.63;;
19519;SDS011;9904;52.246;20.898;2023-05-07T06:22:41;5.73;;;2.80;;
19519;SDS011;9904;52.246;20.898;2023-05-07T06:25:08;4.53;;;2.87;;
19519;SDS011;9904;52.246;20.898;2023-05-07T06:27:35;5.30;;;2.80;;
19519;SDS011;9904;52.246;20.898;2023-05-07T06:30:01;3.17;;;2.37;;
19519;SDS011;9904;52.246;20.898;2023-05-07T06:32:28;4.70;;;2.57;;
19519;SDS011;9904;52.246;20.898;2023-05-07T06:34:55;5.60;;;2.60;;
19519;SDS011;9904;52.246;20.898;2023-05-07T06:37:21;6.57;;;2.50;;
19519;SDS011;9904;52.246;20.898;2023-05-07T06:39:48;3.87;;;2.57;;
19519;SDS011;9904;52.246;20.898;2023-05-07T06:42:14;3.87;;;2.47;;
19519;SDS011;9904;52.246;20.898;2023-05-07T06:44:41;5.57;;;2.70;;
19519;SDS011;9904;52.246;20.898;2023-05-07T06:47:08;4.87;;;2.47;;
19519;SDS011;9904;52.246;20.898;2023-05-07T06:49:34;5.00;;;2.80;;
19519;SDS011;9904;52.246;20.898;2023-05-07T06:52:01;5.57;;;2.67;;
19519;SDS011;9904;52.246;20.898;2023-05-07T06:54:27;6.07;;;2.33;;
19519;SDS011;9904;52.246;20.898;2023-05-07T06:56:54;8.43;;;2.90;;
19519;SDS011;9904;52.246;20.898;2023-05-07T06:59:21;4.87;;;2.47;;
19519;SDS011;9904;52.246;20.898;2023-05-07T07:01:48;4.53;;;2.40;;
19519;SDS011;9904;52.246;20.898;2023-05-07T07:04:14;6.67;;;2.63;;
19519;SDS011;9904;52.246;20.898;2023-05-07T07:06:41;4.80;;;2.50;;
19519;SDS011;9904;52.246;20.898;2023-05-07T07:09:08;4.37;;;2.63;;
19519;SDS011;9904;52.246;20.898;2023-05-07T07:11:34;3.77;;;2.10;;
19519;SDS011;9904;52.246;20.898;2023-05-07T07:14:01;3.37;;;2.17;;
19519;SDS011;9904;52.246;20.898;2023-05-07T07:16:27;3.97;;;2.40;;
19519;SDS011;9904;52.246;20.898;2023-05-07T07:18:54;3.87;;;2.07;;
19519;SDS011;9904;52.246;20.898;2023-05-07T07:21:21;4.10;;;2.10;;
19519;SDS011;9904;52.246;20.898;2023-05-07T07:23:47;4.73;;;2.20;;
19519;SDS011;9904;52.246;20.898;2023-05-07T07:26:14;4.60;;;2.30;;
19519;SDS011;9904;52.246;20.898;2023-05-07T07:28:46;5.53;;;2.20;;
19519;SDS011;9904;52.246;20.898;2023-05-07T07:31:13;3.30;;;2.03;;
19519;SDS011;9904;52.246;20.898;2023-05-07T07:33:40;3.73;;;2.00;;
19519;SDS011;9904;52.246;20.898;2023-05-07T07:36:06;3.63;;;1.90;;
19519;SDS011;9904;52.246;20.898;2023-05-07T07:38:34;2.37;;;1.80;;
19519;SDS011;9904;52.246;20.898;2023-05-07T07:41:01;4.60;;;2.60;;
19519;SDS011;9904;52.246;20.898;2023-05-07T07:43:28;3.50;;;1.70;;
19519;SDS011;9904;52.246;20.898;2023-05-07T07:45:55;2.60;;;1.83;;
19519;SDS011;9904;52.246;20.898;2023-05-07T07:48:21;5.53;;;1.90;;
19519;SDS011;9904;52.246;20.898;2023-05-07T07:50:48;4.53;;;2.00;;
19519;SDS011;9904;52.246;20.898;2023-05-07T07:53:16;3.97;;;2.20;;
19519;SDS011;9904;52.246;20.898;2023-05-07T07:55:43;3.20;;;2.10;;
19519;SDS011;9904;52.246;20.898;2023-05-07T07:58:10;4.67;;;2.10;;
19519;SDS011;9904;52.246;20.898;2023-05-07T08:00:36;3.17;;;1.87;;
19519;SDS011;9904;52.246;20.898;2023-05-07T08:03:03;5.73;;;2.30;;
19519;SDS011;9904;52.246;20.898;2023-05-07T08:05:31;4.33;;;1.83;;
19519;SDS011;9904;52.246;20.898;2023-05-07T08:07:58;2.83;;;1.90;;
19519;SDS011;9904;52.246;20.898;2023-05-07T08:10:24;3.87;;;1.80;;
19519;SDS011;9904;52.246;20.898;2023-05-07T08:12:51;4.20;;;1.80;;
19519;SDS011;9904;52.246;20.898;2023-05-07T08:15:18;3.50;;;1.80;;
19519;SDS011;9904;52.246;20.898;2023-05-07T08:17:44;4.53;;;1.80;;
19519;SDS011;9904;52.246;20.898;2023-05-07T08:20:11;4.13;;;2.07;;
19519;SDS011;9904;52.246;20.898;2023-05-07T08:22:38;3.50;;;1.80;;
19519;SDS011;9904;52.246;20.898;2023-05-07T08:25:05;3.97;;;2.20;;
19519;SDS011;9904;52.246;20.898;2023-05-07T08:27:31;2.73;;;1.73;;
19519;SDS011;9904;52.246;20.898;2023-05-07T08:29:58;5.40;;;1.93;;
19519;SDS011;9904;52.246;20.898;2023-05-07T08:32:25;4.70;;;1.90;;
19519;SDS011;9904;52.246;20.898;2023-05-07T08:34:51;4.83;;;2.00;;
19519;SDS011;9904;52.246;20.898;2023-05-07T08:37:18;2.97;;;1.87;;
19519;SDS011;9904;52.246;20.898;2023-05-07T08:39:45;4.67;;;1.70;;
19519;SDS011;9904;52.246;20.898;2023-05-07T08:42:11;4.93;;;1.60;;
19519;SDS011;9904;52.246;20.898;2023-05-07T08:44:39;2.73;;;1.50;;
19519;SDS011;9904;52.246;20.898;2023-05-07T08:47:06;6.43;;;1.50;;
19519;SDS011;9904;52.246;20.898;2023-05-07T08:49:33;3.23;;;1.77;;
19519;SDS011;9904;52.246;20.898;2023-05-07T08:52:01;2.00;;;1.50;;
19519;SDS011;9904;52.246;20.898;2023-05-07T08:54:27;4.73;;;1.80;;
19519;SDS011;9904;52.246;20.898;2023-05-07T08:56:55;4.90;;;1.70;;
19519;SDS011;9904;52.246;20.898;2023-05-07T08:59:22;4.40;;;1.87;;
19519;SDS011;9904;52.246;20.898;2023-05-07T09:01:48;3.20;;;1.90;;
19519;SDS011;9904;52.246;20.898;2023-05-07T09:04:15;5.00;;;1.80;;
19519;SDS011;9904;52.246;20.898;2023-05-07T09:06:42;3.73;;;1.40;;
19519;SDS011;9904;52.246;20.898;2023-05-07T09:09:08;4.30;;;1.80;;
19519;SDS011;9904;52.246;20.898;2023-05-07T09:11:35;2.93;;;1.57;;
19519;SDS011;9904;52.246;20.898;2023-05-07T09:14:02;2.97;;;1.50;;
19519;SDS011;9904;52.246;20.898;2023-05-07T09:16:29;3.70;;;1.60;;
19519;SDS011;9904;52.246;20.898;2023-05-07T09:18:57;5.23;;;2.13;;
19519;SDS011;9904;52.246;20.898;2023-05-07T09:21:26;4.40;;;1.80;;
19519;SDS011;9904;52.246;20.898;2023-05-07T09:23:54;3.17;;;1.47;;
19519;SDS011;9904;52.246;20.898;2023-05-07T09:26:22;2.93;;;1.43;;
19519;SDS011;9904;52.246;20.898;2023-05-07T09:28:49;3.60;;;1.80;;
19519;SDS011;9904;52.246;20.898;2023-05-07T09:31:15;6.07;;;1.80;;
19519;SDS011;9904;52.246;20.898;2023-05-07T09:33:46;4.97;;;2.00;;
19519;SDS011;9904;52.246;20.898;2023-05-07T09:36:12;2.27;;;1.50;;
19519;SDS011;9904;52.246;20.898;2023-05-07T09:38:40;3.47;;;2.00;;
19519;SDS011;9904;52.246;20.898;2023-05-07T09:41:07;4.33;;;1.67;;
19519;SDS011;9904;52.246;20.898;2023-05-07T09:43:36;3.43;;;1.40;;
19519;SDS011;9904;52.246;20.898;2023-05-07T09:46:05;2.50;;;1.33;;
19519;SDS011;9904;52.246;20.898;2023-05-07T09:48:35;4.07;;;1.67;;
19519;SDS011;9904;52.246;20.898;2023-05-07T09:51:04;4.57;;;1.70;;
19519;SDS011;9904;52.246;20.898;2023-05-07T09:53:42;4.03;;;1.53;;
19519;SDS011;9904;52.246;20.898;2023-05-07T09:56:09;3.10;;;1.47;;
19519;SDS011;9904;52.246;20.898;2023-05-07T09:58:37;3.33;;;1.57;;
19519;SDS011;9904;52.246;20.898;2023-05-07T10:01:05;3.30;;;1.67;;
19519;SDS011;9904;52.246;20.898;2023-05-07T10:03:33;2.73;;;1.53;;
19519;SDS011;9904;52.246;20.898;2023-05-07T10:06:01;3.63;;;1.67;;
19519;SDS011;9904;52.246;20.898;2023-05-07T10:08:29;6.40;;;1.67;;
19519;SDS011;9904;52.246;20.898;2023-05-07T10:10:56;2.13;;;1.33;;
19519;SDS011;9904;52.246;20.898;2023-05-07T10:13:23;4.50;;;1.30;;
19519;SDS011;9904;52.246;20.898;2023-05-07T10:15:50;2.17;;;1.33;;
19519;SDS011;9904;52.246;20.898;2023-05-07T10:18:17;3.90;;;1.43;;
19519;SDS011;9904;52.246;20.898;2023-05-07T10:20:44;3.87;;;1.43;;
19519;SDS011;9904;52.246;20.898;2023-05-07T10:23:12;4.43;;;1.50;;
19519;SDS011;9904;52.246;20.898;2023-05-07T10:25:39;4.73;;;1.90;;
19519;SDS011;9904;52.246;20.898;2023-05-07T10:28:08;3.83;;;1.70;;
19519;SDS011;9904;52.246;20.898;2023-05-07T10:30:57;3.43;;;1.60;;
19519;SDS011;9904;52.246;20.898;2023-05-07T10:33:28;2.53;;;1.60;;
19519;SDS011;9904;52.246;20.898;2023-05-07T10:35:57;3.73;;;1.50;;
19519;SDS011;9904;52.246;20.898;2023-05-07T10:38:25;3.87;;;1.33;;
19519;SDS011;9904;52.246;20.898;2023-05-07T10:40:53;4.40;;;1.30;;
19519;SDS011;9904;52.246;20.898;2023-05-07T10:43:20;2.37;;;1.37;;
19519;SDS011;9904;52.246;20.898;2023-05-07T10:51:29;3.50;;;1.60;;
19519;SDS011;9904;52.246;20.898;2023-05-07T10:56:40;3.27;;;1.60;;
19519;SDS011;9904;52.246;20.898;2023-05-07T11:04:25;2.67;;;1.20;;
19519;SDS011;9904;52.246;20.898;2023-05-07T11:07:11;4.17;;;1.70;;
19519;SDS011;9904;52.246;20.898;2023-05-07T11:15:05;5.18;;;1.50;;
19519;SDS011;9904;52.246;20.898;2023-05-07T11:17:57;8.73;;;1.70;;
19519;SDS011;9904;52.246;20.898;2023-05-07T11:26:02;2.17;;;1.23;;
19519;SDS011;9904;52.246;20.898;2023-05-07T11:28:30;3.37;;;1.30;;
19519;SDS011;9904;52.246;20.898;2023-05-07T11:30:57;2.70;;;1.30;;
19519;SDS011;9904;52.246;20.898;2023-05-07T11:33:24;1.90;;;1.20;;
19519;SDS011;9904;52.246;20.898;2023-05-07T11:35:54;2.83;;;1.83;;
19519;SDS011;9904;52.246;20.898;2023-05-07T11:38:20;3.67;;;1.40;;
19519;SDS011;9904;52.246;20.898;2023-05-07T11:40:57;5.80;;;1.50;;
19519;SDS011;9904;52.246;20.898;2023-05-07T11:43:27;3.42;;;1.33;;
19519;SDS011;9904;52.246;20.898;2023-05-07T11:45:53;3.00;;;1.53;;
19519;SDS011;9904;52.246;20.898;2023-05-07T11:48:21;7.60;;;1.63;;
19519;SDS011;9904;52.246;20.898;2023-05-07T11:51:00;5.90;;;1.43;;
19519;SDS011;9904;52.246;20.898;2023-05-07T11:53:33;2.50;;;1.40;;
19519;SDS011;9904;52.246;20.898;2023-05-07T11:56:15;4.63;;;1.73;;
19519;SDS011;9904;52.246;20.898;2023-05-07T11:58:43;2.50;;;1.33;;
19519;SDS011;9904;52.246;20.898;2023-05-07T12:01:11;4.07;;;1.50;;
19519;SDS011;9904;52.246;20.898;2023-05-07T12:03:41;1.90;;;1.10;;
19519;SDS011;9904;52.246;20.898;2023-05-07T12:06:09;5.13;;;1.40;;
19519;SDS011;9904;52.246;20.898;2023-05-07T12:08:38;3.63;;;1.40;;
19519;SDS011;9904;52.246;20.898;2023-05-07T12:11:24;5.73;;;1.40;;
19519;SDS011;9904;52.246;20.898;2023-05-07T12:13:53;3.30;;;1.60;;
19519;SDS011;9904;52.246;20.898;2023-05-07T12:16:24;4.80;;;1.30;;
19519;SDS011;9904;52.246;20.898;2023-05-07T12:18:51;3.20;;;1.27;;
19519;SDS011;9904;52.246;20.898;2023-05-07T12:21:21;6.83;;;1.30;;
19519;SDS011;9904;52.246;20.898;2023-05-07T12:23:48;6.10;;;1.57;;
19519;SDS011;9904;52.246;20.898;2023-05-07T12:26:15;5.27;;;1.87;;
19519;SDS011;9904;52.246;20.898;2023-05-07T12:28:41;4.27;;;1.87;;
19519;SDS011;9904;52.246;20.898;2023-05-07T12:31:08;3.13;;;1.90;;
19519;SDS011;9904;52.246;20.898;2023-05-07T12:33:35;3.07;;;1.50;;
19519;SDS011;9904;52.246;20.898;2023-05-07T12:36:03;3.60;;;1.47;;
19519;SDS011;9904;52.246;20.898;2023-05-07T12:38:35;5.57;;;1.23;;
19519;SDS011;9904;52.246;20.898;2023-05-07T12:41:03;2.55;;;1.25;;
19519;SDS011;9904;52.246;20.898;2023-05-07T12:43:30;2.20;;;1.00;;
19519;SDS011;9904;52.246;20.898;2023-05-07T12:45:57;2.47;;;1.30;;
19519;SDS011;9904;52.246;20.898;2023-05-07T12:48:25;6.45;;;1.25;;
19519;SDS011;9904;52.246;20.898;2023-05-07T12:50:56;3.03;;;1.33;;
19519;SDS011;9904;52.246;20.898;2023-05-07T12:53:24;4.53;;;1.33;;
19519;SDS011;9904;52.246;20.898;2023-05-07T12:55:55;2.80;;;1.20;;
19519;SDS011;9904;52.246;20.898;2023-05-07T12:58:23;1.83;;;1.00;;
19519;SDS011;9904;52.246;20.898;2023-05-07T13:00:52;2.60;;;1.23;;
19519;SDS011;9904;52.246;20.898;2023-05-07T13:03:22;2.27;;;1.00;;
19519;SDS011;9904;52.246;20.898;2023-05-07T13:05:52;7.67;;;1.17;;
19519;SDS011;9904;52.246;20.898;2023-05-07T13:08:27;3.23;;;1.17;;
19519;SDS011;9904;52.246;20.898;2023-05-07T13:10:59;3.77;;;1.20;;
19519;SDS011;9904;52.246;20.898;2023-05-07T13:13:30;1.93;;;1.07;;
19519;SDS011;9904;52.246;20.898;2023-05-07T13:15:58;1.77;;;1.20;;
19519;SDS011;9904;52.246;20.898;2023-05-07T13:18:26;3.53;;;1.30;;
19519;SDS011;9904;52.246;20.898;2023-05-07T13:20:55;2.33;;;1.20;;
19519;SDS011;9904;52.246;20.898;2023-05-07T13:23:22;2.53;;;1.20;;
19519;SDS011;9904;52.246;20.898;2023-05-07T13:25:48;1.63;;;0.97;;
19519;SDS011;9904;52.246;20.898;2023-05-07T13:28:15;4.30;;;1.97;;
19519;SDS011;9904;52.246;20.898;2023-05-07T13:30:42;2.70;;;1.27;;
19519;SDS011;9904;52.246;20.898;2023-05-07T13:33:09;6.13;;;1.60;;
19519;SDS011;9904;52.246;20.898;2023-05-07T13:35:35;1.83;;;1.07;;
19519;SDS011;9904;52.246;20.898;2023-05-07T13:38:02;2.03;;;1.00;;
19519;SDS011;9904;52.246;20.898;2023-05-07T13:40:28;1.43;;;1.00;;
19519;SDS011;9904;52.246;20.898;2023-05-07T13:42:56;3.80;;;1.20;;
19519;SDS011;9904;52.246;20.898;2023-05-07T13:45:24;2.37;;;0.93;;
19519;SDS011;9904;52.246;20.898;2023-05-07T13:47:52;3.90;;;1.20;;
19519;SDS011;9904;52.246;20.898;2023-05-07T13:50:18;5.03;;;1.20;;
19519;SDS011;9904;52.246;20.898;2023-05-07T13:52:45;3.00;;;1.30;;
19519;SDS011;9904;52.246;20.898;2023-05-07T13:55:17;2.70;;;0.97;;
19519;SDS011;9904;52.246;20.898;2023-05-07T13:57:47;4.10;;;0.87;;
19519;SDS011;9904;52.246;20.898;2023-05-07T14:00:13;3.00;;;0.93;;
19519;SDS011;9904;52.246;20.898;2023-05-07T14:02:41;3.70;;;1.03;;
19519;SDS011;9904;52.246;20.898;2023-05-07T14:05:08;2.00;;;0.90;;
19519;SDS011;9904;52.246;20.898;2023-05-07T14:07:36;1.67;;;0.90;;
19519;SDS011;9904;52.246;20.898;2023-05-07T14:10:02;4.37;;;1.03;;
19519;SDS011;9904;52.246;20.898;2023-05-07T14:12:29;2.10;;;0.90;;
19519;SDS011;9904;52.246;20.898;2023-05-07T14:14:56;4.70;;;1.20;;
19519;SDS011;9904;52.246;20.898;2023-05-07T14:17:23;3.10;;;1.10;;
19519;SDS011;9904;52.246;20.898;2023-05-07T14:19:51;1.80;;;1.03;;
19519;SDS011;9904;52.246;20.898;2023-05-07T14:22:20;1.07;;;0.80;;
19519;SDS011;9904;52.246;20.898;2023-05-07T14:24:48;1.77;;;0.90;;
19519;SDS011;9904;52.246;20.898;2023-05-07T14:27:31;3.13;;;1.00;;
19519;SDS011;9904;52.246;20.898;2023-05-07T14:29:57;2.57;;;1.10;;
19519;SDS011;9904;52.246;20.898;2023-05-07T14:32:24;4.03;;;1.20;;
19519;SDS011;9904;52.246;20.898;2023-05-07T14:34:51;3.07;;;1.10;;
19519;SDS011;9904;52.246;20.898;2023-05-07T14:37:17;2.77;;;1.27;;
19519;SDS011;9904;52.246;20.898;2023-05-07T14:39:46;2.30;;;1.07;;
19519;SDS011;9904;52.246;20.898;2023-05-07T14:42:15;1.50;;;1.00;;
19519;SDS011;9904;52.246;20.898;2023-05-07T14:44:41;4.87;;;1.57;;
19519;SDS011;9904;52.246;20.898;2023-05-07T14:47:08;2.23;;;0.97;;
19519;SDS011;9904;52.246;20.898;2023-05-07T14:49:35;5.10;;;1.20;;
19519;SDS011;9904;52.246;20.898;2023-05-07T14:52:01;3.03;;;1.10;;
19519;SDS011;9904;52.246;20.898;2023-05-07T14:54:28;3.63;;;1.33;;
19519;SDS011;9904;52.246;20.898;2023-05-07T14:56:54;1.57;;;1.00;;
19519;SDS011;9904;52.246;20.898;2023-05-07T14:59:22;4.03;;;1.23;;
19519;SDS011;9904;52.246;20.898;2023-05-07T15:01:50;3.97;;;1.20;;
19519;SDS011;9904;52.246;20.898;2023-05-07T15:04:17;2.97;;;1.40;;
19519;SDS011;9904;52.246;20.898;2023-05-07T15:06:44;5.90;;;1.67;;
19519;SDS011;9904;52.246;20.898;2023-05-07T15:09:10;3.73;;;1.20;;
19519;SDS011;9904;52.246;20.898;2023-05-07T15:11:37;8.07;;;1.50;;